sensor_id;sensor_type;location;lat;lon;timestamp;P1;durP1;ratioP1;P2;durP2;ratioP2
7381;SDS011;3732;48.052;7.800;2022-09-09T00:00:06;2.77;;;1.40;;
7381;SDS011;3732;48.052;7.800;2022-09-09T00:02:33;1.93;;;1.43;;
7381;SDS011;3732;48.052;7.800;2022-09-09T00:05:08;2.33;;;1.50;;
7381;SDS011;3732;48.052;7.800;2022-09-09T00:07:38;1.80;;;1.40;;
7381;SDS011;3732;48.052;7.800;2022-09-09T00:10:13;2.13;;;1.73;;
7381;SDS011;3732;48.052;7.800;2022-09-09T00:12:45;3.47;;;1.73;;
7381;SDS011;3732;48.052;7.800;2022-09-09T00:15:17;4.17;;;1.50;;
7381;SDS011;3732;48.052;7.800;2022-09-09T00:17:47;2.20;;;1.50;;
7381;SDS011;3732;48.052;7.800;2022-09-09T00:20:22;5.33;;;1.80;;
7381;SDS011;3732;48.052;7.800;2022-09-09T00:22:51;2.20;;;1.60;;
7381;SDS011;3732;48.052;7.800;2022-09-09T00:25:23;6.23;;;2.10;;
7381;SDS011;3732;48.052;7.800;2022-09-09T00:27:50;2.83;;;1.50;;
7381;SDS011;3732;48.052;7.800;2022-09-09T00:30:18;5.70;;;1.77;;
7381;SDS011;3732;48.052;7.800;2022-09-09T00:32:47;2.80;;;1.60;;
7381;SDS011;3732;48.052;7.800;2022-09-09T00:35:16;1.50;;;1.40;;
7381;SDS011;3732;48.052;7.800;2022-09-09T00:37:46;3.03;;;1.70;;
7381;SDS011;3732;48.052;7.800;2022-09-09T00:40:18;2.37;;;1.73;;
7381;SDS011;3732;48.052;7.800;2022-09-09T00:42:49;2.27;;;1.40;;
7381;SDS011;3732;48.052;7.800;2022-09-09T00:45:25;5.60;;;1.60;;
7381;SDS011;3732;48.052;7.800;2022-09-09T00:47:55;4.33;;;1.90;;
7381;SDS011;3732;48.052;7.800;2022-09-09T00:53:30;2.67;;;1.67;;
7381;SDS011;3732;48.052;7.800;2022-09-09T00:56:01;1.93;;;1.70;;
7381;SDS011;3732;48.052;7.800;2022-09-09T00:58:31;1.73;;;1.60;;
7381;SDS011;3732;48.052;7.800;2022-09-09T01:01:00;3.47;;;1.57;;
7381;SDS011;3732;48.052;7.800;2022-09-09T01:03:33;5.83;;;2.63;;
7381;SDS011;3732;48.052;7.800;2022-09-09T01:06:02;5.67;;;1.60;;
7381;SDS011;3732;48.052;7.800;2022-09-09T01:08:39;6.37;;;1.77;;
7381;SDS011;3732;48.052;7.800;2022-09-09T01:11:09;3.80;;;1.57;;
7381;SDS011;3732;48.052;7.800;2022-09-09T01:13:38;3.97;;;1.87;;
7381;SDS011;3732;48.052;7.800;2022-09-09T01:16:07;4.03;;;1.50;;
7381;SDS011;3732;48.052;7.800;2022-09-09T01:18:37;2.17;;;1.40;;
7381;SDS011;3732;48.052;7.800;2022-09-09T01:21:08;2.13;;;1.43;;
7381;SDS011;3732;48.052;7.800;2022-09-09T01:23:45;2.07;;;1.60;;
7381;SDS011;3732;48.052;7.800;2022-09-09T01:26:23;1.43;;;1.33;;
7381;SDS011;3732;48.052;7.800;2022-09-09T01:28:52;1.63;;;1.40;;
7381;SDS011;3732;48.052;7.800;2022-09-09T01:31:21;2.30;;;1.47;;
7381;SDS011;3732;48.052;7.800;2022-09-09T01:33:49;3.47;;;1.70;;
7381;SDS011;3732;48.052;7.800;2022-09-09T01:36:21;6.83;;;1.80;;
7381;SDS011;3732;48.052;7.800;2022-09-09T01:38:51;2.47;;;1.50;;
7381;SDS011;3732;48.052;7.800;2022-09-09T01:41:18;1.93;;;1.70;;
7381;SDS011;3732;48.052;7.800;2022-09-09T01:43:47;2.80;;;1.40;;
7381;SDS011;3732;48.052;7.800;2022-09-09T01:46:16;3.63;;;1.30;;
7381;SDS011;3732;48.052;7.800;2022-09-09T01:48:44;2.30;;;1.40;;
7381;SDS011;3732;48.052;7.800;2022-09-09T01:51:12;3.23;;;1.67;;
7381;SDS011;3732;48.052;7.800;2022-09-09T01:53:39;1.43;;;1.20;;
7381;SDS011;3732;48.052;7.800;2022-09-09T01:56:11;1.57;;;1.23;;
7381;SDS011;3732;48.052;7.800;2022-09-09T01:58:45;2.07;;;1.83;;
7381;SDS011;3732;48.052;7.800;2022-09-09T02:01:17;2.63;;;1.20;;
7381;SDS011;3732;48.052;7.800;2022-09-09T02:03:51;1.40;;;1.30;;
7381;SDS011;3732;48.052;7.800;2022-09-09T02:06:22;4.20;;;1.60;;
7381;SDS011;3732;48.052;7.800;2022-09-09T02:08:52;1.70;;;1.27;;
7381;SDS011;3732;48.052;7.800;2022-09-09T02:11:20;2.60;;;1.30;;
7381;SDS011;3732;48.052;7.800;2022-09-09T02:13:48;1.37;;;1.17;;
7381;SDS011;3732;48.052;7.800;2022-09-09T02:16:21;3.97;;;1.50;;
7381;SDS011;3732;48.052;7.800;2022-09-09T02:18:50;2.37;;;1.30;;
7381;SDS011;3732;48.052;7.800;2022-09-09T02:21:19;5.03;;;1.47;;
7381;SDS011;3732;48.052;7.800;2022-09-09T02:23:48;4.67;;;1.90;;
7381;SDS011;3732;48.052;7.800;2022-09-09T02:26:17;2.00;;;1.20;;
7381;SDS011;3732;48.052;7.800;2022-09-09T02:28:46;4.60;;;1.60;;
7381;SDS011;3732;48.052;7.800;2022-09-09T02:31:16;3.73;;;1.70;;
7381;SDS011;3732;48.052;7.800;2022-09-09T02:33:56;2.77;;;1.30;;
7381;SDS011;3732;48.052;7.800;2022-09-09T02:36:24;3.30;;;1.17;;
7381;SDS011;3732;48.052;7.800;2022-09-09T02:38:52;1.77;;;1.23;;
7381;SDS011;3732;48.052;7.800;2022-09-09T02:41:21;3.30;;;1.30;;
7381;SDS011;3732;48.052;7.800;2022-09-09T02:43:49;3.33;;;1.60;;
7381;SDS011;3732;48.052;7.800;2022-09-09T02:49:01;2.80;;;1.10;;
7381;SDS011;3732;48.052;7.800;2022-09-09T02:51:32;2.07;;;1.20;;
7381;SDS011;3732;48.052;7.800;2022-09-09T02:54:04;1.97;;;1.60;;
7381;SDS011;3732;48.052;7.800;2022-09-09T02:56:39;2.70;;;1.43;;
7381;SDS011;3732;48.052;7.800;2022-09-09T02:59:07;1.97;;;1.33;;
7381;SDS011;3732;48.052;7.800;2022-09-09T03:01:35;2.07;;;1.33;;
7381;SDS011;3732;48.052;7.800;2022-09-09T03:04:06;4.77;;;1.43;;
7381;SDS011;3732;48.052;7.800;2022-09-09T03:06:34;2.33;;;1.43;;
7381;SDS011;3732;48.052;7.800;2022-09-09T03:09:01;4.13;;;1.50;;
7381;SDS011;3732;48.052;7.800;2022-09-09T03:11:29;2.37;;;1.50;;
7381;SDS011;3732;48.052;7.800;2022-09-09T03:13:56;2.73;;;1.43;;
7381;SDS011;3732;48.052;7.800;2022-09-09T03:16:23;1.90;;;1.40;;
7381;SDS011;3732;48.052;7.800;2022-09-09T03:18:50;2.37;;;1.47;;
7381;SDS011;3732;48.052;7.800;2022-09-09T03:21:19;3.70;;;1.30;;
7381;SDS011;3732;48.052;7.800;2022-09-09T03:23:47;2.80;;;1.40;;
7381;SDS011;3732;48.052;7.800;2022-09-09T03:26:14;1.57;;;1.43;;
7381;SDS011;3732;48.052;7.800;2022-09-09T03:28:41;4.73;;;1.73;;
7381;SDS011;3732;48.052;7.800;2022-09-09T03:31:09;1.87;;;1.33;;
7381;SDS011;3732;48.052;7.800;2022-09-09T03:33:37;1.53;;;1.10;;
7381;SDS011;3732;48.052;7.800;2022-09-09T03:36:06;3.43;;;1.13;;
7381;SDS011;3732;48.052;7.800;2022-09-09T03:38:36;3.03;;;1.53;;
7381;SDS011;3732;48.052;7.800;2022-09-09T03:41:04;4.07;;;1.50;;
7381;SDS011;3732;48.052;7.800;2022-09-09T03:43:33;2.33;;;1.60;;
7381;SDS011;3732;48.052;7.800;2022-09-09T03:46:01;1.90;;;1.40;;
7381;SDS011;3732;48.052;7.800;2022-09-09T03:48:28;2.00;;;1.47;;
7381;SDS011;3732;48.052;7.800;2022-09-09T03:50:56;1.70;;;1.50;;
7381;SDS011;3732;48.052;7.800;2022-09-09T03:53:26;4.57;;;1.70;;
7381;SDS011;3732;48.052;7.800;2022-09-09T03:55:55;2.30;;;1.30;;
7381;SDS011;3732;48.052;7.800;2022-09-09T03:58:25;4.83;;;1.50;;
7381;SDS011;3732;48.052;7.800;2022-09-09T04:00:53;4.83;;;1.83;;
7381;SDS011;3732;48.052;7.800;2022-09-09T04:03:20;1.43;;;1.33;;
7381;SDS011;3732;48.052;7.800;2022-09-09T04:05:49;2.20;;;1.50;;
7381;SDS011;3732;48.052;7.800;2022-09-09T04:08:17;2.60;;;1.60;;
7381;SDS011;3732;48.052;7.800;2022-09-09T04:10:44;3.67;;;1.57;;
7381;SDS011;3732;48.052;7.800;2022-09-09T04:13:14;2.17;;;1.60;;
7381;SDS011;3732;48.052;7.800;2022-09-09T04:15:42;1.53;;;1.37;;
7381;SDS011;3732;48.052;7.800;2022-09-09T04:18:10;2.17;;;1.70;;
7381;SDS011;3732;48.052;7.800;2022-09-09T04:20:37;2.47;;;1.60;;
7381;SDS011;3732;48.052;7.800;2022-09-09T04:23:05;2.77;;;1.50;;
7381;SDS011;3732;48.052;7.800;2022-09-09T04:25:32;4.70;;;1.60;;
7381;SDS011;3732;48.052;7.800;2022-09-09T04:28:00;5.00;;;2.00;;
7381;SDS011;3732;48.052;7.800;2022-09-09T04:30:29;3.07;;;1.57;;
7381;SDS011;3732;48.052;7.800;2022-09-09T04:33:06;2.07;;;1.53;;
7381;SDS011;3732;48.052;7.800;2022-09-09T04:35:48;3.60;;;1.50;;
7381;SDS011;3732;48.052;7.800;2022-09-09T04:38:36;2.60;;;1.50;;
7381;SDS011;3732;48.052;7.800;2022-09-09T04:41:03;2.37;;;1.60;;
7381;SDS011;3732;48.052;7.800;2022-09-09T04:43:31;1.87;;;1.20;;
7381;SDS011;3732;48.052;7.800;2022-09-09T04:46:01;1.77;;;1.20;;
7381;SDS011;3732;48.052;7.800;2022-09-09T04:48:28;1.50;;;1.20;;
7381;SDS011;3732;48.052;7.800;2022-09-09T04:50:56;2.80;;;1.40;;
7381;SDS011;3732;48.052;7.800;2022-09-09T04:53:24;1.70;;;1.27;;
7381;SDS011;3732;48.052;7.800;2022-09-09T04:55:52;2.50;;;1.30;;
7381;SDS011;3732;48.052;7.800;2022-09-09T04:58:19;6.63;;;1.60;;
7381;SDS011;3732;48.052;7.800;2022-09-09T05:00:48;2.73;;;1.53;;
7381;SDS011;3732;48.052;7.800;2022-09-09T05:03:18;1.57;;;1.43;;
7381;SDS011;3732;48.052;7.800;2022-09-09T05:05:45;2.47;;;1.10;;
7381;SDS011;3732;48.052;7.800;2022-09-09T05:08:12;2.03;;;0.97;;
7381;SDS011;3732;48.052;7.800;2022-09-09T05:10:40;2.63;;;1.43;;
7381;SDS011;3732;48.052;7.800;2022-09-09T05:13:08;3.77;;;1.30;;
7381;SDS011;3732;48.052;7.800;2022-09-09T05:15:36;3.30;;;1.50;;
7381;SDS011;3732;48.052;7.800;2022-09-09T05:18:03;1.30;;;1.20;;
7381;SDS011;3732;48.052;7.800;2022-09-09T05:20:32;2.07;;;1.07;;
7381;SDS011;3732;48.052;7.800;2022-09-09T05:22:59;2.87;;;1.23;;
7381;SDS011;3732;48.052;7.800;2022-09-09T05:25:26;4.03;;;1.30;;
7381;SDS011;3732;48.052;7.800;2022-09-09T05:27:53;2.53;;;1.30;;
7381;SDS011;3732;48.052;7.800;2022-09-09T05:30:21;3.67;;;1.20;;
7381;SDS011;3732;48.052;7.800;2022-09-09T05:32:49;2.90;;;1.10;;
7381;SDS011;3732;48.052;7.800;2022-09-09T05:35:17;1.63;;;0.80;;
7381;SDS011;3732;48.052;7.800;2022-09-09T05:37:46;1.33;;;1.20;;
7381;SDS011;3732;48.052;7.800;2022-09-09T05:40:13;3.03;;;1.07;;
7381;SDS011;3732;48.052;7.800;2022-09-09T05:42:40;2.77;;;1.00;;
7381;SDS011;3732;48.052;7.800;2022-09-09T05:45:08;1.20;;;1.10;;
7381;SDS011;3732;48.052;7.800;2022-09-09T05:47:36;2.43;;;1.60;;
7381;SDS011;3732;48.052;7.800;2022-09-09T05:50:03;2.90;;;1.40;;
7381;SDS011;3732;48.052;7.800;2022-09-09T05:52:31;3.57;;;1.83;;
7381;SDS011;3732;48.052;7.800;2022-09-09T05:55:00;2.50;;;1.00;;
7381;SDS011;3732;48.052;7.800;2022-09-09T05:57:29;2.40;;;1.20;;
7381;SDS011;3732;48.052;7.800;2022-09-09T05:59:56;4.07;;;1.63;;
7381;SDS011;3732;48.052;7.800;2022-09-09T06:02:24;3.70;;;1.00;;
7381;SDS011;3732;48.052;7.800;2022-09-09T06:04:51;3.90;;;1.30;;
7381;SDS011;3732;48.052;7.800;2022-09-09T06:07:19;2.43;;;1.10;;
7381;SDS011;3732;48.052;7.800;2022-09-09T06:09:47;3.67;;;1.10;;
7381;SDS011;3732;48.052;7.800;2022-09-09T06:12:18;3.17;;;1.20;;
7381;SDS011;3732;48.052;7.800;2022-09-09T06:14:46;6.03;;;1.37;;
7381;SDS011;3732;48.052;7.800;2022-09-09T06:17:15;1.50;;;1.00;;
7381;SDS011;3732;48.052;7.800;2022-09-09T06:19:43;2.97;;;1.00;;
7381;SDS011;3732;48.052;7.800;2022-09-09T06:22:10;2.30;;;1.10;;
7381;SDS011;3732;48.052;7.800;2022-09-09T06:24:37;3.97;;;1.40;;
7381;SDS011;3732;48.052;7.800;2022-09-09T06:27:05;1.87;;;1.13;;
7381;SDS011;3732;48.052;7.800;2022-09-09T06:29:33;2.13;;;0.93;;
7381;SDS011;3732;48.052;7.800;2022-09-09T06:32:01;4.10;;;1.30;;
7381;SDS011;3732;48.052;7.800;2022-09-09T06:34:33;2.53;;;0.97;;
7381;SDS011;3732;48.052;7.800;2022-09-09T06:37:01;1.30;;;0.80;;
7381;SDS011;3732;48.052;7.800;2022-09-09T06:39:36;1.30;;;0.70;;
7381;SDS011;3732;48.052;7.800;2022-09-09T06:42:04;3.27;;;1.03;;
7381;SDS011;3732;48.052;7.800;2022-09-09T06:44:36;1.97;;;1.20;;
7381;SDS011;3732;48.052;7.800;2022-09-09T06:47:07;1.30;;;0.90;;
7381;SDS011;3732;48.052;7.800;2022-09-09T06:49:36;1.33;;;1.00;;
7381;SDS011;3732;48.052;7.800;2022-09-09T06:53:45;1.50;;;1.00;;
7381;SDS011;3732;48.052;7.800;2022-09-09T06:55:36;2.13;;;1.00;;
7381;SDS011;3732;48.052;7.800;2022-09-09T06:58:07;2.47;;;1.07;;
7381;SDS011;3732;48.052;7.800;2022-09-09T07:01:00;1.33;;;1.00;;
7381;SDS011;3732;48.052;7.800;2022-09-09T07:03:42;2.20;;;1.00;;
7381;SDS011;3732;48.052;7.800;2022-09-09T07:06:19;1.90;;;0.93;;
7381;SDS011;3732;48.052;7.800;2022-09-09T07:09:06;3.33;;;1.20;;
7381;SDS011;3732;48.052;7.800;2022-09-09T07:11:48;2.23;;;0.97;;
7381;SDS011;3732;48.052;7.800;2022-09-09T07:14:32;1.40;;;0.90;;
7381;SDS011;3732;48.052;7.800;2022-09-09T07:19:52;2.80;;;1.20;;
7381;SDS011;3732;48.052;7.800;2022-09-09T07:22:39;1.73;;;0.70;;
7381;SDS011;3732;48.052;7.800;2022-09-09T07:25:46;2.80;;;0.90;;
7381;SDS011;3732;48.052;7.800;2022-09-09T07:28:17;4.00;;;1.10;;
7381;SDS011;3732;48.052;7.800;2022-09-09T07:30:52;2.30;;;0.93;;
7381;SDS011;3732;48.052;7.800;2022-09-09T07:33:38;1.60;;;0.83;;
7381;SDS011;3732;48.052;7.800;2022-09-09T07:36:34;2.73;;;0.93;;
7381;SDS011;3732;48.052;7.800;2022-09-09T07:39:18;0.90;;;0.63;;
7381;SDS011;3732;48.052;7.800;2022-09-09T07:41:55;3.20;;;1.00;;
7381;SDS011;3732;48.052;7.800;2022-09-09T07:47:02;3.13;;;1.40;;
7381;SDS011;3732;48.052;7.800;2022-09-09T07:47:32;3.20;;;1.13;;
7381;SDS011;3732;48.052;7.800;2022-09-09T07:50:13;2.30;;;1.03;;
7381;SDS011;3732;48.052;7.800;2022-09-09T07:55:40;4.00;;;1.13;;
7381;SDS011;3732;48.052;7.800;2022-09-09T07:58:08;2.10;;;0.90;;
7381;SDS011;3732;48.052;7.800;2022-09-09T08:03:34;3.13;;;1.00;;
7381;SDS011;3732;48.052;7.800;2022-09-09T08:06:07;7.27;;;1.57;;
7381;SDS011;3732;48.052;7.800;2022-09-09T08:08:56;1.43;;;0.80;;
7381;SDS011;3732;48.052;7.800;2022-09-09T08:17:35;2.63;;;1.13;;
7381;SDS011;3732;48.052;7.800;2022-09-09T08:20:13;5.00;;;1.23;;
7381;SDS011;3732;48.052;7.800;2022-09-09T08:22:49;4.50;;;1.10;;
7381;SDS011;3732;48.052;7.800;2022-09-09T08:28:19;3.53;;;0.90;;
7381;SDS011;3732;48.052;7.800;2022-09-09T08:30:58;3.13;;;1.20;;
7381;SDS011;3732;48.052;7.800;2022-09-09T08:33:46;4.40;;;1.10;;
7381;SDS011;3732;48.052;7.800;2022-09-09T08:39:10;4.07;;;1.20;;
7381;SDS011;3732;48.052;7.800;2022-09-09T08:44:44;3.80;;;1.27;;
7381;SDS011;3732;48.052;7.800;2022-09-09T08:47:31;1.83;;;1.13;;
7381;SDS011;3732;48.052;7.800;2022-09-09T08:50:05;1.13;;;0.70;;
7381;SDS011;3732;48.052;7.800;2022-09-09T08:52:36;2.60;;;1.00;;
7381;SDS011;3732;48.052;7.800;2022-09-09T08:55:15;2.97;;;1.10;;
7381;SDS011;3732;48.052;7.800;2022-09-09T08:57:48;2.13;;;0.97;;
7381;SDS011;3732;48.052;7.800;2022-09-09T09:00:28;3.17;;;0.93;;
7381;SDS011;3732;48.052;7.800;2022-09-09T09:02:59;4.07;;;1.23;;
7381;SDS011;3732;48.052;7.800;2022-09-09T09:05:32;2.97;;;1.20;;
7381;SDS011;3732;48.052;7.800;2022-09-09T09:08:04;3.97;;;1.27;;
7381;SDS011;3732;48.052;7.800;2022-09-09T09:10:36;4.70;;;1.23;;
7381;SDS011;3732;48.052;7.800;2022-09-09T09:13:10;2.63;;;0.80;;
7381;SDS011;3732;48.052;7.800;2022-09-09T09:15:39;2.90;;;1.00;;
7381;SDS011;3732;48.052;7.800;2022-09-09T09:18:08;3.70;;;1.10;;
7381;SDS011;3732;48.052;7.800;2022-09-09T09:20:41;3.30;;;0.90;;
7381;SDS011;3732;48.052;7.800;2022-09-09T09:23:12;2.80;;;1.17;;
7381;SDS011;3732;48.052;7.800;2022-09-09T09:25:43;3.53;;;1.03;;
7381;SDS011;3732;48.052;7.800;2022-09-09T09:28:12;3.17;;;1.10;;
7381;SDS011;3732;48.052;7.800;2022-09-09T09:30:42;2.77;;;0.83;;
7381;SDS011;3732;48.052;7.800;2022-09-09T09:33:14;14.17;;;1.63;;
7381;SDS011;3732;48.052;7.800;2022-09-09T09:35:43;2.40;;;0.90;;
7381;SDS011;3732;48.052;7.800;2022-09-09T09:38:13;2.47;;;0.87;;
7381;SDS011;3732;48.052;7.800;2022-09-09T09:40:47;2.57;;;1.00;;
7381;SDS011;3732;48.052;7.800;2022-09-09T09:43:17;2.67;;;0.90;;
7381;SDS011;3732;48.052;7.800;2022-09-09T09:45:45;4.37;;;0.77;;
7381;SDS011;3732;48.052;7.800;2022-09-09T09:48:13;2.67;;;0.90;;
7381;SDS011;3732;48.052;7.800;2022-09-09T09:50:47;2.67;;;1.20;;
7381;SDS011;3732;48.052;7.800;2022-09-09T09:53:20;2.97;;;1.10;;
7381;SDS011;3732;48.052;7.800;2022-09-09T09:55:53;2.60;;;0.90;;
7381;SDS011;3732;48.052;7.800;2022-09-09T09:58:20;3.40;;;0.93;;
7381;SDS011;3732;48.052;7.800;2022-09-09T10:00:51;1.83;;;0.70;;
7381;SDS011;3732;48.052;7.800;2022-09-09T10:03:23;2.93;;;0.97;;
7381;SDS011;3732;48.052;7.800;2022-09-09T10:05:52;3.37;;;1.00;;
7381;SDS011;3732;48.052;7.800;2022-09-09T10:08:21;1.70;;;0.70;;
7381;SDS011;3732;48.052;7.800;2022-09-09T10:11:12;3.23;;;1.00;;
7381;SDS011;3732;48.052;7.800;2022-09-09T10:13:47;2.93;;;0.80;;
7381;SDS011;3732;48.052;7.800;2022-09-09T10:16:24;2.43;;;1.23;;
7381;SDS011;3732;48.052;7.800;2022-09-09T10:19:02;5.03;;;0.97;;
7381;SDS011;3732;48.052;7.800;2022-09-09T10:21:37;2.93;;;0.80;;
7381;SDS011;3732;48.052;7.800;2022-09-09T10:24:16;1.77;;;0.80;;
7381;SDS011;3732;48.052;7.800;2022-09-09T10:26:58;3.10;;;0.83;;
7381;SDS011;3732;48.052;7.800;2022-09-09T10:29:42;3.83;;;1.10;;
7381;SDS011;3732;48.052;7.800;2022-09-09T10:32:27;2.47;;;0.93;;
7381;SDS011;3732;48.052;7.800;2022-09-09T10:35:20;5.93;;;0.80;;
7381;SDS011;3732;48.052;7.800;2022-09-09T10:38:17;3.70;;;0.97;;
7381;SDS011;3732;48.052;7.800;2022-09-09T10:40:58;5.10;;;1.10;;
7381;SDS011;3732;48.052;7.800;2022-09-09T10:43:32;2.20;;;0.80;;
7381;SDS011;3732;48.052;7.800;2022-09-09T10:46:03;3.23;;;0.83;;
7381;SDS011;3732;48.052;7.800;2022-09-09T10:48:37;3.23;;;1.23;;
7381;SDS011;3732;48.052;7.800;2022-09-09T10:51:15;2.37;;;1.20;;
7381;SDS011;3732;48.052;7.800;2022-09-09T10:53:51;3.53;;;1.20;;
7381;SDS011;3732;48.052;7.800;2022-09-09T10:56:21;2.13;;;1.00;;
7381;SDS011;3732;48.052;7.800;2022-09-09T10:58:51;3.13;;;0.83;;
7381;SDS011;3732;48.052;7.800;2022-09-09T11:01:24;2.73;;;1.03;;
7381;SDS011;3732;48.052;7.800;2022-09-09T11:03:53;3.17;;;1.07;;
7381;SDS011;3732;48.052;7.800;2022-09-09T11:06:23;3.07;;;0.93;;
7381;SDS011;3732;48.052;7.800;2022-09-09T11:08:58;3.03;;;1.03;;
7381;SDS011;3732;48.052;7.800;2022-09-09T11:11:29;4.03;;;1.50;;
7381;SDS011;3732;48.052;7.800;2022-09-09T11:13:59;2.37;;;0.67;;
7381;SDS011;3732;48.052;7.800;2022-09-09T11:16:29;2.30;;;1.17;;
7381;SDS011;3732;48.052;7.800;2022-09-09T11:19:00;2.57;;;1.00;;
7381;SDS011;3732;48.052;7.800;2022-09-09T11:21:46;1.10;;;0.70;;
7381;SDS011;3732;48.052;7.800;2022-09-09T11:24:18;2.83;;;0.90;;
7381;SDS011;3732;48.052;7.800;2022-09-09T11:26:49;1.77;;;0.80;;
7381;SDS011;3732;48.052;7.800;2022-09-09T11:35:01;1.93;;;0.70;;
7381;SDS011;3732;48.052;7.800;2022-09-09T11:37:36;3.00;;;0.73;;
7381;SDS011;3732;48.052;7.800;2022-09-09T11:40:15;1.33;;;0.87;;
7381;SDS011;3732;48.052;7.800;2022-09-09T11:42:44;2.27;;;1.50;;
7381;SDS011;3732;48.052;7.800;2022-09-09T11:45:22;2.23;;;0.97;;
7381;SDS011;3732;48.052;7.800;2022-09-09T11:47:51;3.17;;;1.00;;
7381;SDS011;3732;48.052;7.800;2022-09-09T11:50:28;5.33;;;1.57;;
7381;SDS011;3732;48.052;7.800;2022-09-09T12:01:49;1.33;;;0.77;;
7381;SDS011;3732;48.052;7.800;2022-09-09T12:04:30;1.77;;;0.97;;
7381;SDS011;3732;48.052;7.800;2022-09-09T12:07:05;3.00;;;0.90;;
7381;SDS011;3732;48.052;7.800;2022-09-09T12:09:52;1.40;;;0.70;;
7381;SDS011;3732;48.052;7.800;2022-09-09T12:12:26;1.63;;;0.67;;
7381;SDS011;3732;48.052;7.800;2022-09-09T12:14:55;2.30;;;0.80;;
7381;SDS011;3732;48.052;7.800;2022-09-09T12:17:26;2.97;;;0.70;;
7381;SDS011;3732;48.052;7.800;2022-09-09T12:20:02;4.70;;;1.07;;
7381;SDS011;3732;48.052;7.800;2022-09-09T12:22:34;1.03;;;0.60;;
7381;SDS011;3732;48.052;7.800;2022-09-09T12:25:05;1.47;;;0.83;;
7381;SDS011;3732;48.052;7.800;2022-09-09T12:27:46;4.20;;;1.10;;
7381;SDS011;3732;48.052;7.800;2022-09-09T12:30:17;3.33;;;1.17;;
7381;SDS011;3732;48.052;7.800;2022-09-09T12:32:48;2.63;;;1.07;;
7381;SDS011;3732;48.052;7.800;2022-09-09T12:35:28;2.47;;;1.17;;
7381;SDS011;3732;48.052;7.800;2022-09-09T12:37:58;2.43;;;0.90;;
7381;SDS011;3732;48.052;7.800;2022-09-09T12:40:29;4.63;;;1.13;;
7381;SDS011;3732;48.052;7.800;2022-09-09T12:43:00;0.53;;;0.50;;
7381;SDS011;3732;48.052;7.800;2022-09-09T12:45:31;1.80;;;0.87;;
7381;SDS011;3732;48.052;7.800;2022-09-09T12:48:03;1.73;;;0.80;;
7381;SDS011;3732;48.052;7.800;2022-09-09T12:50:33;1.63;;;1.13;;
7381;SDS011;3732;48.052;7.800;2022-09-09T12:53:02;3.17;;;0.87;;
7381;SDS011;3732;48.052;7.800;2022-09-09T12:55:32;5.67;;;1.00;;
7381;SDS011;3732;48.052;7.800;2022-09-09T12:58:01;3.47;;;1.00;;
7381;SDS011;3732;48.052;7.800;2022-09-09T13:00:31;3.33;;;0.60;;
7381;SDS011;3732;48.052;7.800;2022-09-09T13:03:00;1.47;;;0.70;;
7381;SDS011;3732;48.052;7.800;2022-09-09T13:05:41;2.43;;;0.80;;
7381;SDS011;3732;48.052;7.800;2022-09-09T13:08:11;2.83;;;0.70;;
7381;SDS011;3732;48.052;7.800;2022-09-09T13:10:46;2.53;;;0.80;;
7381;SDS011;3732;48.052;7.800;2022-09-09T13:13:21;1.77;;;0.80;;
7381;SDS011;3732;48.052;7.800;2022-09-09T13:15:50;2.67;;;1.03;;
7381;SDS011;3732;48.052;7.800;2022-09-09T13:18:18;1.20;;;1.00;;
7381;SDS011;3732;48.052;7.800;2022-09-09T13:20:58;4.30;;;0.70;;
7381;SDS011;3732;48.052;7.800;2022-09-09T13:23:27;3.37;;;0.93;;
7381;SDS011;3732;48.052;7.800;2022-09-09T13:25:58;1.80;;;0.57;;
7381;SDS011;3732;48.052;7.800;2022-09-09T13:28:31;1.53;;;0.83;;
7381;SDS011;3732;48.052;7.800;2022-09-09T13:31:02;2.37;;;0.70;;
7381;SDS011;3732;48.052;7.800;2022-09-09T13:33:32;1.40;;;0.70;;
7381;SDS011;3732;48.052;7.800;2022-09-09T13:36:04;2.50;;;0.77;;
7381;SDS011;3732;48.052;7.800;2022-09-09T13:38:33;2.60;;;0.63;;
7381;SDS011;3732;48.052;7.800;2022-09-09T13:41:03;1.03;;;0.57;;
7381;SDS011;3732;48.052;7.800;2022-09-09T13:43:34;1.47;;;0.80;;
7381;SDS011;3732;48.052;7.800;2022-09-09T13:46:03;2.43;;;0.70;;
7381;SDS011;3732;48.052;7.800;2022-09-09T13:48:31;1.13;;;0.63;;
7381;SDS011;3732;48.052;7.800;2022-09-09T13:50:59;1.60;;;0.73;;
7381;SDS011;3732;48.052;7.800;2022-09-09T13:53:29;1.03;;;0.60;;
7381;SDS011;3732;48.052;7.800;2022-09-09T13:55:58;3.23;;;1.10;;
7381;SDS011;3732;48.052;7.800;2022-09-09T13:58:26;0.50;;;0.50;;
7381;SDS011;3732;48.052;7.800;2022-09-09T14:00:54;4.57;;;0.70;;
7381;SDS011;3732;48.052;7.800;2022-09-09T14:03:22;1.73;;;0.57;;
7381;SDS011;3732;48.052;7.800;2022-09-09T14:05:52;0.50;;;0.40;;
7381;SDS011;3732;48.052;7.800;2022-09-09T14:08:22;1.50;;;0.63;;
7381;SDS011;3732;48.052;7.800;2022-09-09T14:11:01;0.53;;;0.50;;
7381;SDS011;3732;48.052;7.800;2022-09-09T14:16:30;2.03;;;1.03;;
7381;SDS011;3732;48.052;7.800;2022-09-09T14:18:57;2.53;;;0.80;;
7381;SDS011;3732;48.052;7.800;2022-09-09T14:21:27;0.67;;;0.53;;
7381;SDS011;3732;48.052;7.800;2022-09-09T14:23:54;4.63;;;0.87;;
7381;SDS011;3732;48.052;7.800;2022-09-09T14:26:28;1.53;;;0.60;;
7381;SDS011;3732;48.052;7.800;2022-09-09T14:28:57;1.90;;;0.70;;
7381;SDS011;3732;48.052;7.800;2022-09-09T14:31:39;3.73;;;0.70;;
7381;SDS011;3732;48.052;7.800;2022-09-09T14:34:11;2.70;;;0.80;;
7381;SDS011;3732;48.052;7.800;2022-09-09T14:36:42;5.57;;;0.77;;
7381;SDS011;3732;48.052;7.800;2022-09-09T14:39:09;1.53;;;0.67;;
7381;SDS011;3732;48.052;7.800;2022-09-09T14:41:46;1.53;;;0.67;;
7381;SDS011;3732;48.052;7.800;2022-09-09T14:44:16;2.57;;;0.60;;
7381;SDS011;3732;48.052;7.800;2022-09-09T14:46:46;0.50;;;0.50;;
7381;SDS011;3732;48.052;7.800;2022-09-09T14:49:15;2.97;;;0.90;;
7381;SDS011;3732;48.052;7.800;2022-09-09T14:51:47;2.30;;;0.80;;
7381;SDS011;3732;48.052;7.800;2022-09-09T14:54:15;3.57;;;1.10;;
7381;SDS011;3732;48.052;7.800;2022-09-09T14:56:54;1.10;;;0.70;;
7381;SDS011;3732;48.052;7.800;2022-09-09T14:59:44;3.27;;;1.03;;
7381;SDS011;3732;48.052;7.800;2022-09-09T15:02:27;2.37;;;1.13;;
7381;SDS011;3732;48.052;7.800;2022-09-09T15:04:56;2.03;;;0.60;;
7381;SDS011;3732;48.052;7.800;2022-09-09T15:07:24;1.07;;;0.60;;
7381;SDS011;3732;48.052;7.800;2022-09-09T15:09:56;2.70;;;0.80;;
7381;SDS011;3732;48.052;7.800;2022-09-09T15:12:36;1.23;;;0.73;;
7381;SDS011;3732;48.052;7.800;2022-09-09T15:15:04;2.30;;;0.80;;
7381;SDS011;3732;48.052;7.800;2022-09-09T15:17:31;2.00;;;0.60;;
7381;SDS011;3732;48.052;7.800;2022-09-09T15:20:03;1.57;;;0.70;;
7381;SDS011;3732;48.052;7.800;2022-09-09T15:22:32;3.20;;;0.70;;
7381;SDS011;3732;48.052;7.800;2022-09-09T15:25:06;0.90;;;0.67;;
7381;SDS011;3732;48.052;7.800;2022-09-09T15:27:42;1.07;;;0.50;;
7381;SDS011;3732;48.052;7.800;2022-09-09T15:30:10;3.27;;;1.17;;
7381;SDS011;3732;48.052;7.800;2022-09-09T15:32:42;2.20;;;1.20;;
7381;SDS011;3732;48.052;7.800;2022-09-09T15:35:10;2.00;;;0.60;;
7381;SDS011;3732;48.052;7.800;2022-09-09T15:37:37;1.70;;;0.60;;
7381;SDS011;3732;48.052;7.800;2022-09-09T15:40:05;2.80;;;0.60;;
7381;SDS011;3732;48.052;7.800;2022-09-09T15:42:33;3.40;;;0.73;;
7381;SDS011;3732;48.052;7.800;2022-09-09T15:45:01;3.30;;;0.70;;
7381;SDS011;3732;48.052;7.800;2022-09-09T15:47:30;2.60;;;1.00;;
7381;SDS011;3732;48.052;7.800;2022-09-09T15:49:58;2.37;;;0.90;;
7381;SDS011;3732;48.052;7.800;2022-09-09T15:52:25;1.63;;;0.70;;
7381;SDS011;3732;48.052;7.800;2022-09-09T15:54:53;1.23;;;0.63;;
7381;SDS011;3732;48.052;7.800;2022-09-09T15:57:20;1.07;;;0.70;;
7381;SDS011;3732;48.052;7.800;2022-09-09T15:59:47;1.73;;;0.87;;
7381;SDS011;3732;48.052;7.800;2022-09-09T16:02:16;3.83;;;0.93;;
7381;SDS011;3732;48.052;7.800;2022-09-09T16:04:44;0.90;;;0.63;;
7381;SDS011;3732;48.052;7.800;2022-09-09T16:07:11;2.83;;;1.37;;
7381;SDS011;3732;48.052;7.800;2022-09-09T16:09:38;1.77;;;1.07;;
7381;SDS011;3732;48.052;7.800;2022-09-09T16:12:08;2.33;;;0.80;;
7381;SDS011;3732;48.052;7.800;2022-09-09T16:14:37;3.30;;;0.97;;
7381;SDS011;3732;48.052;7.800;2022-09-09T16:17:06;0.70;;;0.70;;
7381;SDS011;3732;48.052;7.800;2022-09-09T16:19:34;1.60;;;0.77;;
7381;SDS011;3732;48.052;7.800;2022-09-09T16:22:02;2.43;;;0.80;;
7381;SDS011;3732;48.052;7.800;2022-09-09T16:24:31;1.83;;;0.70;;
7381;SDS011;3732;48.052;7.800;2022-09-09T16:26:58;1.67;;;0.87;;
7381;SDS011;3732;48.052;7.800;2022-09-09T16:29:26;1.33;;;0.80;;